Aviation Digital Data Service (ADDS)

Output produced by TAFs form (0947 UTC 25 June 2018)
found at http://www.aviationweather.gov/adds/tafs/
 
KMOB 250856Z AUTO 20004KT 10SM CLR 26/24 A3004 RMK AO2 SLP170 T02560244 57002
KMOB 250529Z 2506/2606 20005KT P6SM SKC 
     FM251800 23004KT P6SM SCT040 
     PROB30 2518/2522 P6SM TSRA BKN050CB 
     FM252300 20006KT P6SM FEW050 SCT250